Terminal Aerodrome Forecast
Issued by NWS

Home | Current Version | Previous Version | Text Only | Print | Product List | Glossary On
Versions: 1 2 3 4 5 6 7 8 9 10 11 12 13 14 15 16 17 18 19
000
FTUS43 KFGF 052339
TAFTVF
TAF
KTVF 052339Z 0600/0624 07011KT P6SM OVC009
     FM060200 06011KT 1SM -SN OVC020
     FM060600 04013KT 1SM -SN OVC015
     FM060800 33014KT 1 1/2SM -SN OVC008
     FM061000 30014KT 2SM -SN OVC008
     FM061100 27015KT 2SM -SN OVC003
     FM061600 27019G27KT 1SM -SN BLSN OVC003
     FM062300 28023G32KT 2SM -SN BLSN OVC008=

USA.gov is the U.S. government's official web portal to all federal, state and local government web resources and services.